sensor_id;sensor_type;location;lat;lon;timestamp;P1;durP1;ratioP1;P2;durP2;ratioP2
79487;SDS011;68949;53.176;18.088;2024-03-06T00:00:47;23.40;;;11.90;;
79487;SDS011;68949;53.176;18.088;2024-03-06T00:03:34;24.80;;;12.30;;
79487;SDS011;68949;53.176;18.088;2024-03-06T00:06:01;24.60;;;11.90;;
79487;SDS011;68949;53.176;18.088;2024-03-06T00:08:27;27.00;;;12.50;;
79487;SDS011;68949;53.176;18.088;2024-03-06T00:10:54;22.80;;;11.40;;
79487;SDS011;68949;53.176;18.088;2024-03-06T00:13:21;21.10;;;10.50;;
79487;SDS011;68949;53.176;18.088;2024-03-06T00:15:48;26.30;;;11.70;;
79487;SDS011;68949;53.176;18.088;2024-03-06T00:18:14;25.50;;;12.90;;
79487;SDS011;68949;53.176;18.088;2024-03-06T00:20:41;25.50;;;12.50;;
79487;SDS011;68949;53.176;18.088;2024-03-06T00:23:09;26.00;;;12.60;;
79487;SDS011;68949;53.176;18.088;2024-03-06T00:25:35;27.10;;;11.60;;
79487;SDS011;68949;53.176;18.088;2024-03-06T00:28:02;25.80;;;12.90;;
79487;SDS011;68949;53.176;18.088;2024-03-06T00:30:29;23.40;;;12.10;;
79487;SDS011;68949;53.176;18.088;2024-03-06T00:32:56;21.00;;;10.30;;
79487;SDS011;68949;53.176;18.088;2024-03-06T00:35:23;21.60;;;11.40;;
79487;SDS011;68949;53.176;18.088;2024-03-06T00:37:51;26.60;;;12.90;;
79487;SDS011;68949;53.176;18.088;2024-03-06T00:40:18;19.80;;;10.00;;
79487;SDS011;68949;53.176;18.088;2024-03-06T00:42:45;26.00;;;12.80;;
79487;SDS011;68949;53.176;18.088;2024-03-06T00:45:11;27.40;;;12.70;;
79487;SDS011;68949;53.176;18.088;2024-03-06T00:47:38;22.10;;;10.60;;
79487;SDS011;68949;53.176;18.088;2024-03-06T00:50:05;24.30;;;11.10;;
79487;SDS011;68949;53.176;18.088;2024-03-06T00:52:33;23.80;;;11.30;;
79487;SDS011;68949;53.176;18.088;2024-03-06T00:55:00;21.20;;;10.90;;
79487;SDS011;68949;53.176;18.088;2024-03-06T00:57:27;22.10;;;11.90;;
79487;SDS011;68949;53.176;18.088;2024-03-06T00:59:54;24.90;;;12.10;;
79487;SDS011;68949;53.176;18.088;2024-03-06T01:02:20;23.10;;;11.80;;
79487;SDS011;68949;53.176;18.088;2024-03-06T01:04:47;23.00;;;11.70;;
79487;SDS011;68949;53.176;18.088;2024-03-06T01:07:14;22.90;;;12.10;;
79487;SDS011;68949;53.176;18.088;2024-03-06T01:09:40;24.60;;;11.20;;
79487;SDS011;68949;53.176;18.088;2024-03-06T01:12:07;22.20;;;12.40;;
79487;SDS011;68949;53.176;18.088;2024-03-06T01:14:34;23.10;;;12.20;;
79487;SDS011;68949;53.176;18.088;2024-03-06T01:17:00;24.00;;;11.60;;
79487;SDS011;68949;53.176;18.088;2024-03-06T01:19:27;22.90;;;11.80;;
79487;SDS011;68949;53.176;18.088;2024-03-06T01:21:54;22.00;;;11.90;;
79487;SDS011;68949;53.176;18.088;2024-03-06T01:24:21;23.80;;;12.00;;
79487;SDS011;68949;53.176;18.088;2024-03-06T01:26:48;27.40;;;12.80;;
79487;SDS011;68949;53.176;18.088;2024-03-06T01:29:14;25.00;;;12.10;;
79487;SDS011;68949;53.176;18.088;2024-03-06T01:31:41;24.90;;;12.90;;
79487;SDS011;68949;53.176;18.088;2024-03-06T01:34:08;24.50;;;12.20;;
79487;SDS011;68949;53.176;18.088;2024-03-06T01:36:35;27.60;;;12.50;;
79487;SDS011;68949;53.176;18.088;2024-03-06T01:39:02;22.50;;;11.20;;
79487;SDS011;68949;53.176;18.088;2024-03-06T01:41:29;27.00;;;13.30;;
79487;SDS011;68949;53.176;18.088;2024-03-06T01:43:55;25.30;;;13.30;;
79487;SDS011;68949;53.176;18.088;2024-03-06T01:46:22;25.40;;;12.80;;
79487;SDS011;68949;53.176;18.088;2024-03-06T01:48:49;18.50;;;9.40;;
79487;SDS011;68949;53.176;18.088;2024-03-06T01:51:16;18.70;;;8.70;;
79487;SDS011;68949;53.176;18.088;2024-03-06T01:53:43;20.00;;;9.10;;
79487;SDS011;68949;53.176;18.088;2024-03-06T01:56:09;17.40;;;8.20;;
79487;SDS011;68949;53.176;18.088;2024-03-06T01:58:39;22.10;;;11.20;;
79487;SDS011;68949;53.176;18.088;2024-03-06T02:01:06;27.00;;;12.30;;
79487;SDS011;68949;53.176;18.088;2024-03-06T02:03:33;23.00;;;11.70;;
79487;SDS011;68949;53.176;18.088;2024-03-06T02:06:02;25.20;;;12.50;;
79487;SDS011;68949;53.176;18.088;2024-03-06T02:08:29;27.30;;;13.70;;
79487;SDS011;68949;53.176;18.088;2024-03-06T02:10:57;27.50;;;13.40;;
79487;SDS011;68949;53.176;18.088;2024-03-06T02:13:24;28.70;;;13.60;;
79487;SDS011;68949;53.176;18.088;2024-03-06T02:15:51;22.70;;;10.70;;
79487;SDS011;68949;53.176;18.088;2024-03-06T02:18:17;24.30;;;12.20;;
79487;SDS011;68949;53.176;18.088;2024-03-06T02:20:44;29.60;;;14.10;;
79487;SDS011;68949;53.176;18.088;2024-03-06T02:23:12;28.00;;;12.90;;
79487;SDS011;68949;53.176;18.088;2024-03-06T02:25:41;15.90;;;6.70;;
79487;SDS011;68949;53.176;18.088;2024-03-06T02:28:07;30.70;;;13.20;;
79487;SDS011;68949;53.176;18.088;2024-03-06T02:30:35;28.10;;;13.30;;
79487;SDS011;68949;53.176;18.088;2024-03-06T02:33:03;30.30;;;14.50;;
79487;SDS011;68949;53.176;18.088;2024-03-06T02:35:30;24.80;;;11.30;;
79487;SDS011;68949;53.176;18.088;2024-03-06T02:37:59;26.70;;;12.90;;
79487;SDS011;68949;53.176;18.088;2024-03-06T02:40:26;27.90;;;13.50;;
79487;SDS011;68949;53.176;18.088;2024-03-06T02:42:53;25.40;;;10.00;;
79487;SDS011;68949;53.176;18.088;2024-03-06T02:45:19;31.90;;;14.10;;
79487;SDS011;68949;53.176;18.088;2024-03-06T02:47:46;25.50;;;12.30;;
79487;SDS011;68949;53.176;18.088;2024-03-06T02:50:13;32.10;;;14.40;;
79487;SDS011;68949;53.176;18.088;2024-03-06T02:52:40;34.30;;;14.70;;
79487;SDS011;68949;53.176;18.088;2024-03-06T02:55:07;28.80;;;12.50;;
79487;SDS011;68949;53.176;18.088;2024-03-06T02:57:33;30.30;;;13.10;;
79487;SDS011;68949;53.176;18.088;2024-03-06T03:00:00;26.00;;;11.30;;
79487;SDS011;68949;53.176;18.088;2024-03-06T03:02:27;26.80;;;10.30;;
79487;SDS011;68949;53.176;18.088;2024-03-06T03:04:54;35.60;;;16.00;;
79487;SDS011;68949;53.176;18.088;2024-03-06T03:07:21;33.20;;;15.10;;
79487;SDS011;68949;53.176;18.088;2024-03-06T03:09:48;22.10;;;10.50;;
79487;SDS011;68949;53.176;18.088;2024-03-06T03:12:14;22.90;;;9.30;;
79487;SDS011;68949;53.176;18.088;2024-03-06T03:14:41;32.10;;;13.40;;
79487;SDS011;68949;53.176;18.088;2024-03-06T03:17:10;36.60;;;17.40;;
79487;SDS011;68949;53.176;18.088;2024-03-06T03:19:37;33.70;;;14.60;;
79487;SDS011;68949;53.176;18.088;2024-03-06T03:22:06;35.20;;;14.50;;
79487;SDS011;68949;53.176;18.088;2024-03-06T03:24:34;26.80;;;11.60;;
79487;SDS011;68949;53.176;18.088;2024-03-06T03:27:01;32.10;;;12.30;;
79487;SDS011;68949;53.176;18.088;2024-03-06T03:29:28;28.80;;;11.80;;
79487;SDS011;68949;53.176;18.088;2024-03-06T03:31:56;29.10;;;11.80;;
79487;SDS011;68949;53.176;18.088;2024-03-06T03:34:23;39.80;;;17.70;;
79487;SDS011;68949;53.176;18.088;2024-03-06T03:36:50;34.30;;;13.80;;
79487;SDS011;68949;53.176;18.088;2024-03-06T03:39:16;30.70;;;12.50;;
79487;SDS011;68949;53.176;18.088;2024-03-06T03:41:47;36.10;;;15.30;;
79487;SDS011;68949;53.176;18.088;2024-03-06T03:44:15;26.30;;;10.70;;
79487;SDS011;68949;53.176;18.088;2024-03-06T03:46:43;26.80;;;11.40;;
79487;SDS011;68949;53.176;18.088;2024-03-06T03:49:10;29.00;;;13.10;;
79487;SDS011;68949;53.176;18.088;2024-03-06T03:51:38;33.40;;;13.80;;
79487;SDS011;68949;53.176;18.088;2024-03-06T03:54:06;36.70;;;16.90;;
79487;SDS011;68949;53.176;18.088;2024-03-06T03:56:34;41.70;;;18.00;;
79487;SDS011;68949;53.176;18.088;2024-03-06T03:59:01;24.20;;;10.70;;
79487;SDS011;68949;53.176;18.088;2024-03-06T04:01:29;26.60;;;11.50;;
79487;SDS011;68949;53.176;18.088;2024-03-06T04:03:55;35.90;;;13.10;;
79487;SDS011;68949;53.176;18.088;2024-03-06T04:06:22;41.60;;;17.20;;
79487;SDS011;68949;53.176;18.088;2024-03-06T04:08:50;30.40;;;13.50;;
79487;SDS011;68949;53.176;18.088;2024-03-06T04:11:17;25.00;;;9.40;;
79487;SDS011;68949;53.176;18.088;2024-03-06T04:13:44;39.10;;;16.50;;
79487;SDS011;68949;53.176;18.088;2024-03-06T04:16:15;40.10;;;17.40;;
79487;SDS011;68949;53.176;18.088;2024-03-06T04:18:44;45.70;;;19.40;;
79487;SDS011;68949;53.176;18.088;2024-03-06T04:21:12;31.30;;;13.30;;
79487;SDS011;68949;53.176;18.088;2024-03-06T04:23:41;31.50;;;12.70;;
79487;SDS011;68949;53.176;18.088;2024-03-06T04:26:07;44.80;;;20.80;;
79487;SDS011;68949;53.176;18.088;2024-03-06T04:28:34;29.40;;;13.70;;
79487;SDS011;68949;53.176;18.088;2024-03-06T04:31:01;36.50;;;15.30;;
79487;SDS011;68949;53.176;18.088;2024-03-06T04:33:27;30.00;;;12.50;;
79487;SDS011;68949;53.176;18.088;2024-03-06T04:35:54;23.50;;;10.10;;
79487;SDS011;68949;53.176;18.088;2024-03-06T04:38:21;31.90;;;13.50;;
79487;SDS011;68949;53.176;18.088;2024-03-06T04:40:48;29.40;;;12.50;;
79487;SDS011;68949;53.176;18.088;2024-03-06T04:43:14;39.40;;;15.70;;
79487;SDS011;68949;53.176;18.088;2024-03-06T04:45:41;34.70;;;13.50;;
79487;SDS011;68949;53.176;18.088;2024-03-06T04:48:08;46.20;;;17.80;;
79487;SDS011;68949;53.176;18.088;2024-03-06T04:50:34;24.80;;;10.30;;
79487;SDS011;68949;53.176;18.088;2024-03-06T04:53:01;33.50;;;15.30;;
79487;SDS011;68949;53.176;18.088;2024-03-06T04:55:28;42.80;;;17.20;;
79487;SDS011;68949;53.176;18.088;2024-03-06T04:57:56;30.60;;;13.10;;
79487;SDS011;68949;53.176;18.088;2024-03-06T05:00:23;31.60;;;12.00;;
79487;SDS011;68949;53.176;18.088;2024-03-06T05:02:50;36.60;;;13.90;;
79487;SDS011;68949;53.176;18.088;2024-03-06T05:05:17;31.90;;;12.90;;
79487;SDS011;68949;53.176;18.088;2024-03-06T05:07:44;31.00;;;12.50;;
79487;SDS011;68949;53.176;18.088;2024-03-06T05:10:12;38.50;;;15.10;;
79487;SDS011;68949;53.176;18.088;2024-03-06T05:12:38;47.50;;;19.20;;
79487;SDS011;68949;53.176;18.088;2024-03-06T05:15:05;25.40;;;9.70;;
79487;SDS011;68949;53.176;18.088;2024-03-06T05:17:33;32.00;;;13.00;;
79487;SDS011;68949;53.176;18.088;2024-03-06T05:20:00;31.50;;;13.10;;
79487;SDS011;68949;53.176;18.088;2024-03-06T05:22:27;39.20;;;16.30;;
79487;SDS011;68949;53.176;18.088;2024-03-06T05:24:54;30.10;;;12.40;;
79487;SDS011;68949;53.176;18.088;2024-03-06T05:27:21;37.50;;;14.20;;
79487;SDS011;68949;53.176;18.088;2024-03-06T05:29:48;54.60;;;23.10;;
79487;SDS011;68949;53.176;18.088;2024-03-06T05:32:15;48.70;;;20.00;;
79487;SDS011;68949;53.176;18.088;2024-03-06T05:34:42;48.90;;;19.30;;
79487;SDS011;68949;53.176;18.088;2024-03-06T05:37:09;57.60;;;22.20;;
79487;SDS011;68949;53.176;18.088;2024-03-06T05:39:35;61.40;;;23.30;;
79487;SDS011;68949;53.176;18.088;2024-03-06T05:42:03;44.10;;;17.00;;
79487;SDS011;68949;53.176;18.088;2024-03-06T05:44:31;61.80;;;24.70;;
79487;SDS011;68949;53.176;18.088;2024-03-06T05:46:59;58.60;;;23.70;;
79487;SDS011;68949;53.176;18.088;2024-03-06T05:49:29;53.60;;;19.40;;
79487;SDS011;68949;53.176;18.088;2024-03-06T05:51:56;62.80;;;23.40;;
79487;SDS011;68949;53.176;18.088;2024-03-06T05:54:23;60.70;;;23.50;;
79487;SDS011;68949;53.176;18.088;2024-03-06T05:56:51;60.20;;;24.40;;
79487;SDS011;68949;53.176;18.088;2024-03-06T05:59:19;59.80;;;23.50;;
79487;SDS011;68949;53.176;18.088;2024-03-06T06:01:46;38.70;;;16.10;;
79487;SDS011;68949;53.176;18.088;2024-03-06T06:04:13;43.20;;;17.00;;
79487;SDS011;68949;53.176;18.088;2024-03-06T06:06:41;55.30;;;22.80;;
79487;SDS011;68949;53.176;18.088;2024-03-06T06:09:07;47.20;;;18.90;;
79487;SDS011;68949;53.176;18.088;2024-03-06T06:11:42;58.00;;;23.40;;
79487;SDS011;68949;53.176;18.088;2024-03-06T06:14:10;64.80;;;25.80;;
79487;SDS011;68949;53.176;18.088;2024-03-06T06:16:38;52.10;;;21.50;;
79487;SDS011;68949;53.176;18.088;2024-03-06T06:19:07;56.00;;;23.10;;
79487;SDS011;68949;53.176;18.088;2024-03-06T06:21:34;50.50;;;20.00;;
79487;SDS011;68949;53.176;18.088;2024-03-06T06:24:03;44.90;;;19.40;;
79487;SDS011;68949;53.176;18.088;2024-03-06T06:26:31;50.20;;;21.80;;
79487;SDS011;68949;53.176;18.088;2024-03-06T06:28:58;52.90;;;22.20;;
79487;SDS011;68949;53.176;18.088;2024-03-06T06:31:25;52.60;;;22.70;;
79487;SDS011;68949;53.176;18.088;2024-03-06T06:33:53;57.20;;;24.20;;
79487;SDS011;68949;53.176;18.088;2024-03-06T06:36:20;49.00;;;21.40;;
79487;SDS011;68949;53.176;18.088;2024-03-06T06:38:49;30.80;;;13.30;;
79487;SDS011;68949;53.176;18.088;2024-03-06T06:41:17;32.60;;;14.30;;
79487;SDS011;68949;53.176;18.088;2024-03-06T06:43:44;50.60;;;22.00;;
79487;SDS011;68949;53.176;18.088;2024-03-06T06:46:11;38.30;;;18.40;;
79487;SDS011;68949;53.176;18.088;2024-03-06T06:48:37;49.60;;;21.70;;
79487;SDS011;68949;53.176;18.088;2024-03-06T06:51:04;36.80;;;17.70;;
79487;SDS011;68949;53.176;18.088;2024-03-06T06:53:31;46.60;;;21.30;;
79487;SDS011;68949;53.176;18.088;2024-03-06T06:55:58;45.10;;;21.60;;
79487;SDS011;68949;53.176;18.088;2024-03-06T06:58:25;39.90;;;17.70;;
79487;SDS011;68949;53.176;18.088;2024-03-06T07:00:55;44.30;;;18.80;;
79487;SDS011;68949;53.176;18.088;2024-03-06T07:03:21;26.00;;;13.30;;
79487;SDS011;68949;53.176;18.088;2024-03-06T07:05:50;46.70;;;20.30;;
79487;SDS011;68949;53.176;18.088;2024-03-06T07:08:16;40.50;;;19.30;;
79487;SDS011;68949;53.176;18.088;2024-03-06T07:10:43;45.00;;;20.90;;
79487;SDS011;68949;53.176;18.088;2024-03-06T07:13:10;39.20;;;17.70;;
79487;SDS011;68949;53.176;18.088;2024-03-06T07:15:37;46.80;;;20.20;;
79487;SDS011;68949;53.176;18.088;2024-03-06T07:18:04;43.40;;;19.40;;
79487;SDS011;68949;53.176;18.088;2024-03-06T07:20:31;37.30;;;17.60;;
79487;SDS011;68949;53.176;18.088;2024-03-06T07:22:58;33.70;;;15.60;;
79487;SDS011;68949;53.176;18.088;2024-03-06T07:25:25;27.20;;;13.10;;
79487;SDS011;68949;53.176;18.088;2024-03-06T07:27:52;41.00;;;18.50;;
79487;SDS011;68949;53.176;18.088;2024-03-06T07:30:19;27.50;;;12.60;;
79487;SDS011;68949;53.176;18.088;2024-03-06T07:32:46;32.10;;;13.80;;
79487;SDS011;68949;53.176;18.088;2024-03-06T07:35:13;36.00;;;17.60;;
79487;SDS011;68949;53.176;18.088;2024-03-06T07:37:40;29.00;;;13.80;;
79487;SDS011;68949;53.176;18.088;2024-03-06T07:40:07;30.50;;;13.70;;
79487;SDS011;68949;53.176;18.088;2024-03-06T07:42:35;30.20;;;15.00;;
79487;SDS011;68949;53.176;18.088;2024-03-06T07:45:05;27.10;;;13.80;;
79487;SDS011;68949;53.176;18.088;2024-03-06T07:47:35;34.10;;;16.40;;
79487;SDS011;68949;53.176;18.088;2024-03-06T07:50:07;32.20;;;15.90;;
79487;SDS011;68949;53.176;18.088;2024-03-06T07:52:34;34.20;;;15.10;;
79487;SDS011;68949;53.176;18.088;2024-03-06T07:55:01;26.00;;;12.90;;
79487;SDS011;68949;53.176;18.088;2024-03-06T07:57:28;33.20;;;13.10;;
79487;SDS011;68949;53.176;18.088;2024-03-06T07:59:54;26.60;;;11.60;;
79487;SDS011;68949;53.176;18.088;2024-03-06T08:02:20;30.20;;;14.20;;
79487;SDS011;68949;53.176;18.088;2024-03-06T08:04:48;34.60;;;16.10;;
79487;SDS011;68949;53.176;18.088;2024-03-06T08:07:14;29.10;;;13.10;;
79487;SDS011;68949;53.176;18.088;2024-03-06T08:09:39;37.30;;;13.70;;
79487;SDS011;68949;53.176;18.088;2024-03-06T08:12:05;27.50;;;12.90;;
79487;SDS011;68949;53.176;18.088;2024-03-06T08:14:32;27.20;;;13.40;;
79487;SDS011;68949;53.176;18.088;2024-03-06T08:16:57;30.20;;;13.30;;
79487;SDS011;68949;53.176;18.088;2024-03-06T08:19:23;26.60;;;12.10;;
79487;SDS011;68949;53.176;18.088;2024-03-06T08:21:50;30.60;;;12.00;;
79487;SDS011;68949;53.176;18.088;2024-03-06T08:24:16;21.90;;;11.40;;
79487;SDS011;68949;53.176;18.088;2024-03-06T08:26:42;23.40;;;11.10;;
79487;SDS011;68949;53.176;18.088;2024-03-06T08:29:08;29.20;;;12.90;;
79487;SDS011;68949;53.176;18.088;2024-03-06T08:31:34;26.40;;;12.60;;
79487;SDS011;68949;53.176;18.088;2024-03-06T08:34:00;28.20;;;13.30;;
79487;SDS011;68949;53.176;18.088;2024-03-06T08:36:25;27.30;;;12.70;;
79487;SDS011;68949;53.176;18.088;2024-03-06T08:38:51;24.60;;;11.10;;
79487;SDS011;68949;53.176;18.088;2024-03-06T08:41:17;24.90;;;11.30;;
79487;SDS011;68949;53.176;18.088;2024-03-06T08:43:43;28.00;;;12.20;;
79487;SDS011;68949;53.176;18.088;2024-03-06T08:46:10;22.80;;;11.30;;
79487;SDS011;68949;53.176;18.088;2024-03-06T08:48:35;21.10;;;11.10;;
79487;SDS011;68949;53.176;18.088;2024-03-06T08:51:01;16.70;;;7.80;;
79487;SDS011;68949;53.176;18.088;2024-03-06T08:53:28;21.70;;;9.30;;
79487;SDS011;68949;53.176;18.088;2024-03-06T08:55:54;21.60;;;10.90;;
79487;SDS011;68949;53.176;18.088;2024-03-06T08:58:20;26.80;;;11.80;;
79487;SDS011;68949;53.176;18.088;2024-03-06T09:00:46;26.10;;;11.90;;
79487;SDS011;68949;53.176;18.088;2024-03-06T09:03:20;23.10;;;11.50;;
79487;SDS011;68949;53.176;18.088;2024-03-06T09:05:46;23.50;;;11.70;;
79487;SDS011;68949;53.176;18.088;2024-03-06T09:08:11;23.90;;;11.80;;
79487;SDS011;68949;53.176;18.088;2024-03-06T09:10:37;22.90;;;12.40;;
79487;SDS011;68949;53.176;18.088;2024-03-06T09:13:03;23.40;;;10.80;;
79487;SDS011;68949;53.176;18.088;2024-03-06T09:15:29;23.00;;;10.90;;
79487;SDS011;68949;53.176;18.088;2024-03-06T09:17:55;25.30;;;10.70;;
79487;SDS011;68949;53.176;18.088;2024-03-06T09:20:21;25.30;;;11.50;;
79487;SDS011;68949;53.176;18.088;2024-03-06T09:22:49;20.10;;;10.50;;
79487;SDS011;68949;53.176;18.088;2024-03-06T09:25:15;23.20;;;11.90;;
79487;SDS011;68949;53.176;18.088;2024-03-06T09:27:41;20.60;;;10.70;;
79487;SDS011;68949;53.176;18.088;2024-03-06T09:30:08;23.50;;;12.60;;
79487;SDS011;68949;53.176;18.088;2024-03-06T09:32:34;28.10;;;14.30;;
79487;SDS011;68949;53.176;18.088;2024-03-06T09:35:00;28.20;;;13.20;;
79487;SDS011;68949;53.176;18.088;2024-03-06T09:37:26;23.30;;;12.20;;
79487;SDS011;68949;53.176;18.088;2024-03-06T09:39:53;25.30;;;12.10;;
79487;SDS011;68949;53.176;18.088;2024-03-06T09:42:18;22.70;;;11.20;;
79487;SDS011;68949;53.176;18.088;2024-03-06T09:44:44;26.50;;;12.90;;
79487;SDS011;68949;53.176;18.088;2024-03-06T09:47:13;24.40;;;10.60;;
79487;SDS011;68949;53.176;18.088;2024-03-06T09:49:42;23.00;;;11.80;;
79487;SDS011;68949;53.176;18.088;2024-03-06T09:52:09;21.20;;;10.30;;
79487;SDS011;68949;53.176;18.088;2024-03-06T09:54:37;27.80;;;12.50;;
79487;SDS011;68949;53.176;18.088;2024-03-06T09:57:04;24.50;;;12.50;;
79487;SDS011;68949;53.176;18.088;2024-03-06T09:59:30;25.70;;;11.30;;
79487;SDS011;68949;53.176;18.088;2024-03-06T10:01:58;27.90;;;12.10;;
79487;SDS011;68949;53.176;18.088;2024-03-06T10:04:28;24.40;;;10.40;;
79487;SDS011;68949;53.176;18.088;2024-03-06T10:06:58;26.80;;;11.60;;
79487;SDS011;68949;53.176;18.088;2024-03-06T10:09:26;22.10;;;11.00;;
79487;SDS011;68949;53.176;18.088;2024-03-06T10:11:53;25.00;;;12.40;;
79487;SDS011;68949;53.176;18.088;2024-03-06T10:14:21;28.00;;;12.40;;
79487;SDS011;68949;53.176;18.088;2024-03-06T10:16:58;26.10;;;11.10;;
79487;SDS011;68949;53.176;18.088;2024-03-06T10:19:27;29.20;;;12.70;;
79487;SDS011;68949;53.176;18.088;2024-03-06T10:21:55;22.80;;;12.00;;
79487;SDS011;68949;53.176;18.088;2024-03-06T10:24:27;22.30;;;10.50;;
79487;SDS011;68949;53.176;18.088;2024-03-06T10:26:58;27.10;;;13.10;;
79487;SDS011;68949;53.176;18.088;2024-03-06T10:29:26;28.60;;;12.40;;
79487;SDS011;68949;53.176;18.088;2024-03-06T10:31:56;25.30;;;11.20;;
79487;SDS011;68949;53.176;18.088;2024-03-06T10:34:25;25.70;;;11.80;;
79487;SDS011;68949;53.176;18.088;2024-03-06T10:36:58;28.40;;;15.10;;
79487;SDS011;68949;53.176;18.088;2024-03-06T10:39:27;23.10;;;11.00;;
79487;SDS011;68949;53.176;18.088;2024-03-06T10:41:57;25.80;;;11.30;;
79487;SDS011;68949;53.176;18.088;2024-03-06T10:44:25;26.40;;;12.40;;
79487;SDS011;68949;53.176;18.088;2024-03-06T10:47:02;24.60;;;11.60;;
79487;SDS011;68949;53.176;18.088;2024-03-06T10:49:31;28.40;;;12.60;;
79487;SDS011;68949;53.176;18.088;2024-03-06T10:52:02;23.80;;;11.30;;
79487;SDS011;68949;53.176;18.088;2024-03-06T10:54:33;23.90;;;10.70;;
79487;SDS011;68949;53.176;18.088;2024-03-06T10:57:08;25.10;;;11.90;;
79487;SDS011;68949;53.176;18.088;2024-03-06T10:59:36;28.50;;;12.20;;
79487;SDS011;68949;53.176;18.088;2024-03-06T11:02:02;31.60;;;14.60;;
79487;SDS011;68949;53.176;18.088;2024-03-06T11:04:29;27.10;;;12.80;;
79487;SDS011;68949;53.176;18.088;2024-03-06T11:07:01;22.80;;;11.40;;
79487;SDS011;68949;53.176;18.088;2024-03-06T11:09:35;24.40;;;12.60;;
79487;SDS011;68949;53.176;18.088;2024-03-06T11:12:04;26.10;;;12.60;;
79487;SDS011;68949;53.176;18.088;2024-03-06T11:14:33;28.10;;;12.40;;
79487;SDS011;68949;53.176;18.088;2024-03-06T11:17:07;25.20;;;10.70;;
79487;SDS011;68949;53.176;18.088;2024-03-06T11:28:17;26.00;;;12.30;;
79487;SDS011;68949;53.176;18.088;2024-03-06T11:33:35;23.10;;;11.80;;
79487;SDS011;68949;53.176;18.088;2024-03-06T11:39:00;25.10;;;13.20;;
79487;SDS011;68949;53.176;18.088;2024-03-06T11:44:12;22.50;;;11.70;;
79487;SDS011;68949;53.176;18.088;2024-03-06T11:49:30;20.00;;;9.80;;
79487;SDS011;68949;53.176;18.088;2024-03-06T11:52:01;23.40;;;11.10;;
79487;SDS011;68949;53.176;18.088;2024-03-06T11:54:33;26.80;;;12.80;;
79487;SDS011;68949;53.176;18.088;2024-03-06T11:57:01;20.60;;;11.10;;
79487;SDS011;68949;53.176;18.088;2024-03-06T11:59:35;24.10;;;11.00;;
79487;SDS011;68949;53.176;18.088;2024-03-06T12:02:05;22.90;;;10.80;;
79487;SDS011;68949;53.176;18.088;2024-03-06T12:04:32;21.70;;;10.80;;
79487;SDS011;68949;53.176;18.088;2024-03-06T12:07:00;17.40;;;9.30;;
79487;SDS011;68949;53.176;18.088;2024-03-06T12:09:33;17.80;;;7.70;;
79487;SDS011;68949;53.176;18.088;2024-03-06T12:11:59;26.40;;;11.10;;
79487;SDS011;68949;53.176;18.088;2024-03-06T12:14:25;23.20;;;12.30;;
79487;SDS011;68949;53.176;18.088;2024-03-06T12:16:59;18.30;;;9.50;;
79487;SDS011;68949;53.176;18.088;2024-03-06T12:19:33;26.20;;;11.30;;
79487;SDS011;68949;53.176;18.088;2024-03-06T12:22:01;22.00;;;10.70;;
79487;SDS011;68949;53.176;18.088;2024-03-06T12:24:31;21.10;;;10.90;;
79487;SDS011;68949;53.176;18.088;2024-03-06T12:27:02;24.10;;;10.60;;
79487;SDS011;68949;53.176;18.088;2024-03-06T12:29:31;24.10;;;11.70;;
79487;SDS011;68949;53.176;18.088;2024-03-06T12:31:58;17.30;;;8.70;;
79487;SDS011;68949;53.176;18.088;2024-03-06T12:34:25;20.10;;;10.10;;
79487;SDS011;68949;53.176;18.088;2024-03-06T12:36:51;17.20;;;8.50;;
79487;SDS011;68949;53.176;18.088;2024-03-06T12:39:17;22.50;;;10.00;;
79487;SDS011;68949;53.176;18.088;2024-03-06T12:41:51;20.80;;;10.00;;
79487;SDS011;68949;53.176;18.088;2024-03-06T12:44:19;19.10;;;9.70;;
79487;SDS011;68949;53.176;18.088;2024-03-06T12:46:45;19.10;;;9.70;;
79487;SDS011;68949;53.176;18.088;2024-03-06T12:49:11;18.30;;;9.80;;
79487;SDS011;68949;53.176;18.088;2024-03-06T12:51:38;19.60;;;10.60;;
79487;SDS011;68949;53.176;18.088;2024-03-06T12:54:03;18.50;;;9.40;;
79487;SDS011;68949;53.176;18.088;2024-03-06T12:56:29;18.00;;;8.40;;
79487;SDS011;68949;53.176;18.088;2024-03-06T12:58:55;17.80;;;8.80;;
79487;SDS011;68949;53.176;18.088;2024-03-06T13:01:21;14.90;;;8.20;;
79487;SDS011;68949;53.176;18.088;2024-03-06T13:03:47;17.30;;;9.30;;
79487;SDS011;68949;53.176;18.088;2024-03-06T13:06:14;18.60;;;9.00;;
79487;SDS011;68949;53.176;18.088;2024-03-06T13:08:41;16.70;;;8.20;;
79487;SDS011;68949;53.176;18.088;2024-03-06T13:11:06;16.20;;;8.30;;
79487;SDS011;68949;53.176;18.088;2024-03-06T13:13:35;16.40;;;8.20;;
79487;SDS011;68949;53.176;18.088;2024-03-06T13:16:01;15.70;;;8.60;;
79487;SDS011;68949;53.176;18.088;2024-03-06T13:18:27;15.40;;;7.50;;
79487;SDS011;68949;53.176;18.088;2024-03-06T13:20:52;14.70;;;7.50;;
79487;SDS011;68949;53.176;18.088;2024-03-06T13:23:19;22.30;;;9.50;;
79487;SDS011;68949;53.176;18.088;2024-03-06T13:25:45;16.50;;;8.20;;
79487;SDS011;68949;53.176;18.088;2024-03-06T13:28:12;16.60;;;7.60;;
79487;SDS011;68949;53.176;18.088;2024-03-06T13:30:38;15.60;;;7.70;;
79487;SDS011;68949;53.176;18.088;2024-03-06T13:33:05;14.70;;;7.90;;
79487;SDS011;68949;53.176;18.088;2024-03-06T13:35:33;17.80;;;7.50;;
79487;SDS011;68949;53.176;18.088;2024-03-06T13:37:59;14.30;;;7.00;;
79487;SDS011;68949;53.176;18.088;2024-03-06T13:40:24;21.00;;;8.10;;
79487;SDS011;68949;53.176;18.088;2024-03-06T13:42:52;18.50;;;7.70;;
79487;SDS011;68949;53.176;18.088;2024-03-06T13:45:18;14.80;;;6.80;;
79487;SDS011;68949;53.176;18.088;2024-03-06T13:47:44;15.60;;;7.10;;
79487;SDS011;68949;53.176;18.088;2024-03-06T13:50:12;17.80;;;8.00;;
79487;SDS011;68949;53.176;18.088;2024-03-06T13:52:42;15.40;;;7.20;;
79487;SDS011;68949;53.176;18.088;2024-03-06T13:55:09;15.50;;;7.60;;
79487;SDS011;68949;53.176;18.088;2024-03-06T13:57:38;16.50;;;8.50;;
79487;SDS011;68949;53.176;18.088;2024-03-06T14:00:08;14.60;;;6.90;;
79487;SDS011;68949;53.176;18.088;2024-03-06T14:02:46;16.00;;;6.70;;
79487;SDS011;68949;53.176;18.088;2024-03-06T14:05:12;15.00;;;6.50;;
79487;SDS011;68949;53.176;18.088;2024-03-06T14:07:40;12.20;;;5.80;;
79487;SDS011;68949;53.176;18.088;2024-03-06T14:10:08;15.40;;;5.70;;
79487;SDS011;68949;53.176;18.088;2024-03-06T14:12:38;13.70;;;6.20;;
79487;SDS011;68949;53.176;18.088;2024-03-06T14:15:05;13.20;;;6.20;;
79487;SDS011;68949;53.176;18.088;2024-03-06T14:17:38;12.00;;;5.50;;
79487;SDS011;68949;53.176;18.088;2024-03-06T14:20:05;11.80;;;5.50;;
79487;SDS011;68949;53.176;18.088;2024-03-06T14:22:31;12.00;;;5.60;;
79487;SDS011;68949;53.176;18.088;2024-03-06T14:24:57;10.30;;;4.90;;
79487;SDS011;68949;53.176;18.088;2024-03-06T14:27:23;10.30;;;5.00;;
79487;SDS011;68949;53.176;18.088;2024-03-06T14:29:49;11.90;;;5.40;;
79487;SDS011;68949;53.176;18.088;2024-03-06T14:32:18;11.10;;;4.90;;